sensor_id;sensor_type;location;lat;lon;timestamp;pressure;altitude;pressure_sealevel;temperature
8227;BMP180;4154;48.810;9.012;2023-10-13T00:00:34;97211.00;;;17.60
8227;BMP180;4154;48.810;9.012;2023-10-13T00:03:06;97202.00;;;17.60
8227;BMP180;4154;48.810;9.012;2023-10-13T00:05:33;97207.00;;;17.50
8227;BMP180;4154;48.810;9.012;2023-10-13T00:08:00;97201.00;;;17.50
8227;BMP180;4154;48.810;9.012;2023-10-13T00:10:28;97191.00;;;17.50
8227;BMP180;4154;48.810;9.012;2023-10-13T00:12:55;97195.00;;;17.50
8227;BMP180;4154;48.810;9.012;2023-10-13T00:15:31;97185.00;;;17.40
8227;BMP180;4154;48.810;9.012;2023-10-13T00:18:05;97197.00;;;17.30
8227;BMP180;4154;48.810;9.012;2023-10-13T00:20:41;97197.00;;;17.30
8227;BMP180;4154;48.810;9.012;2023-10-13T00:23:15;97192.00;;;17.20
8227;BMP180;4154;48.810;9.012;2023-10-13T00:25:47;97190.00;;;17.20
8227;BMP180;4154;48.810;9.012;2023-10-13T00:28:18;97193.00;;;17.20
8227;BMP180;4154;48.810;9.012;2023-10-13T00:30:51;97192.00;;;17.10
8227;BMP180;4154;48.810;9.012;2023-10-13T00:33:26;97200.00;;;17.10
8227;BMP180;4154;48.810;9.012;2023-10-13T00:35:53;97194.00;;;17.00
8227;BMP180;4154;48.810;9.012;2023-10-13T00:38:20;97192.00;;;17.00
8227;BMP180;4154;48.810;9.012;2023-10-13T00:40:48;97186.00;;;17.00
8227;BMP180;4154;48.810;9.012;2023-10-13T00:43:19;97182.00;;;17.00
8227;BMP180;4154;48.810;9.012;2023-10-13T00:45:55;97186.00;;;17.00
8227;BMP180;4154;48.810;9.012;2023-10-13T00:48:40;97176.00;;;17.00
8227;BMP180;4154;48.810;9.012;2023-10-13T00:51:17;97182.00;;;17.00
8227;BMP180;4154;48.810;9.012;2023-10-13T00:54:05;97176.00;;;17.00
8227;BMP180;4154;48.810;9.012;2023-10-13T00:56:42;97172.00;;;17.00
8227;BMP180;4154;48.810;9.012;2023-10-13T00:59:28;97189.00;;;17.00
8227;BMP180;4154;48.810;9.012;2023-10-13T01:01:54;97174.00;;;17.00
8227;BMP180;4154;48.810;9.012;2023-10-13T01:04:24;97176.00;;;17.00
8227;BMP180;4154;48.810;9.012;2023-10-13T01:06:53;97174.00;;;17.00
8227;BMP180;4154;48.810;9.012;2023-10-13T01:09:19;97177.00;;;17.00
8227;BMP180;4154;48.810;9.012;2023-10-13T01:11:50;97177.00;;;16.90
8227;BMP180;4154;48.810;9.012;2023-10-13T01:14:21;97176.00;;;16.80
8227;BMP180;4154;48.810;9.012;2023-10-13T01:16:49;97172.00;;;16.70
8227;BMP180;4154;48.810;9.012;2023-10-13T01:19:19;97173.00;;;16.80
8227;BMP180;4154;48.810;9.012;2023-10-13T01:21:52;97171.00;;;16.80
8227;BMP180;4154;48.810;9.012;2023-10-13T01:24:30;97165.00;;;16.70
8227;BMP180;4154;48.810;9.012;2023-10-13T01:27:04;97163.00;;;16.70
8227;BMP180;4154;48.810;9.012;2023-10-13T01:29:47;97151.00;;;16.70
8227;BMP180;4154;48.810;9.012;2023-10-13T01:32:16;97155.00;;;16.70
8227;BMP180;4154;48.810;9.012;2023-10-13T01:34:42;97158.00;;;16.70
8227;BMP180;4154;48.810;9.012;2023-10-13T01:37:12;97149.00;;;16.70
8227;BMP180;4154;48.810;9.012;2023-10-13T01:39:38;97150.00;;;16.70
8227;BMP180;4154;48.810;9.012;2023-10-13T01:42:04;97144.00;;;16.70
8227;BMP180;4154;48.810;9.012;2023-10-13T01:44:31;97145.00;;;16.70
8227;BMP180;4154;48.810;9.012;2023-10-13T01:47:01;97156.00;;;16.70
8227;BMP180;4154;48.810;9.012;2023-10-13T01:49:32;97139.00;;;16.70
8227;BMP180;4154;48.810;9.012;2023-10-13T01:52:15;97152.00;;;16.70
8227;BMP180;4154;48.810;9.012;2023-10-13T01:54:48;97141.00;;;16.60
8227;BMP180;4154;48.810;9.012;2023-10-13T01:57:16;97135.00;;;16.60
8227;BMP180;4154;48.810;9.012;2023-10-13T01:59:50;97138.00;;;16.50
8227;BMP180;4154;48.810;9.012;2023-10-13T02:02:16;97133.00;;;16.50
8227;BMP180;4154;48.810;9.012;2023-10-13T02:04:55;97139.00;;;16.40
8227;BMP180;4154;48.810;9.012;2023-10-13T02:07:26;97133.00;;;16.40
8227;BMP180;4154;48.810;9.012;2023-10-13T02:09:56;97140.00;;;16.30
8227;BMP180;4154;48.810;9.012;2023-10-13T02:12:24;97130.00;;;16.20
8227;BMP180;4154;48.810;9.012;2023-10-13T02:15:12;97118.00;;;16.10
8227;BMP180;4154;48.810;9.012;2023-10-13T02:17:47;97125.00;;;16.10
8227;BMP180;4154;48.810;9.012;2023-10-13T02:20:17;97116.00;;;16.00
8227;BMP180;4154;48.810;9.012;2023-10-13T02:22:43;97121.00;;;16.00
8227;BMP180;4154;48.810;9.012;2023-10-13T02:25:16;97113.00;;;16.00
8227;BMP180;4154;48.810;9.012;2023-10-13T02:28:03;97105.00;;;15.90
8227;BMP180;4154;48.810;9.012;2023-10-13T02:30:38;97108.00;;;15.80
8227;BMP180;4154;48.810;9.012;2023-10-13T02:33:04;97099.00;;;15.80
8227;BMP180;4154;48.810;9.012;2023-10-13T02:35:32;97108.00;;;15.80
8227;BMP180;4154;48.810;9.012;2023-10-13T02:38:09;97098.00;;;15.80
8227;BMP180;4154;48.810;9.012;2023-10-13T02:40:41;97098.00;;;15.70
8227;BMP180;4154;48.810;9.012;2023-10-13T02:43:07;97102.00;;;15.70
8227;BMP180;4154;48.810;9.012;2023-10-13T02:45:33;97094.00;;;15.70
8227;BMP180;4154;48.810;9.012;2023-10-13T02:48:04;97095.00;;;15.70
8227;BMP180;4154;48.810;9.012;2023-10-13T02:50:43;97085.00;;;15.70
8227;BMP180;4154;48.810;9.012;2023-10-13T02:53:10;97094.00;;;15.70
8227;BMP180;4154;48.810;9.012;2023-10-13T02:55:55;97080.00;;;15.70
8227;BMP180;4154;48.810;9.012;2023-10-13T02:58:23;97079.00;;;15.70
8227;BMP180;4154;48.810;9.012;2023-10-13T03:01:07;97081.00;;;15.70
8227;BMP180;4154;48.810;9.012;2023-10-13T03:03:48;97075.00;;;15.60
8227;BMP180;4154;48.810;9.012;2023-10-13T03:06:18;97076.00;;;15.70
8227;BMP180;4154;48.810;9.012;2023-10-13T03:08:48;97072.00;;;15.60
8227;BMP180;4154;48.810;9.012;2023-10-13T03:11:14;97075.00;;;15.60
8227;BMP180;4154;48.810;9.012;2023-10-13T03:13:46;97065.00;;;15.60
8227;BMP180;4154;48.810;9.012;2023-10-13T03:16:14;97073.00;;;15.60
8227;BMP180;4154;48.810;9.012;2023-10-13T03:18:44;97053.00;;;15.60
8227;BMP180;4154;48.810;9.012;2023-10-13T03:21:23;97057.00;;;15.50
8227;BMP180;4154;48.810;9.012;2023-10-13T03:23:58;97068.00;;;15.50
8227;BMP180;4154;48.810;9.012;2023-10-13T03:26:33;97062.00;;;15.50
8227;BMP180;4154;48.810;9.012;2023-10-13T03:29:01;97059.00;;;15.50
8227;BMP180;4154;48.810;9.012;2023-10-13T03:31:30;97052.00;;;15.50
8227;BMP180;4154;48.810;9.012;2023-10-13T03:34:03;97055.00;;;15.50
8227;BMP180;4154;48.810;9.012;2023-10-13T03:36:29;97054.00;;;15.50
8227;BMP180;4154;48.810;9.012;2023-10-13T03:39:13;97050.00;;;15.40
8227;BMP180;4154;48.810;9.012;2023-10-13T03:41:40;97059.00;;;15.40
8227;BMP180;4154;48.810;9.012;2023-10-13T03:44:06;97056.00;;;15.40
8227;BMP180;4154;48.810;9.012;2023-10-13T03:46:38;97055.00;;;15.40
8227;BMP180;4154;48.810;9.012;2023-10-13T03:49:07;97055.00;;;15.40
8227;BMP180;4154;48.810;9.012;2023-10-13T03:51:40;97057.00;;;15.30
8227;BMP180;4154;48.810;9.012;2023-10-13T03:54:06;97047.00;;;15.30
8227;BMP180;4154;48.810;9.012;2023-10-13T03:56:35;97045.00;;;15.20
8227;BMP180;4154;48.810;9.012;2023-10-13T03:59:04;97050.00;;;15.20
8227;BMP180;4154;48.810;9.012;2023-10-13T04:01:33;97045.00;;;15.20
8227;BMP180;4154;48.810;9.012;2023-10-13T04:04:18;97050.00;;;15.20
8227;BMP180;4154;48.810;9.012;2023-10-13T04:07:03;97046.00;;;15.20
8227;BMP180;4154;48.810;9.012;2023-10-13T04:09:36;97046.00;;;15.20
8227;BMP180;4154;48.810;9.012;2023-10-13T04:12:05;97044.00;;;15.20
8227;BMP180;4154;48.810;9.012;2023-10-13T04:14:36;97045.00;;;15.20
8227;BMP180;4154;48.810;9.012;2023-10-13T04:17:08;97037.00;;;15.20
8227;BMP180;4154;48.810;9.012;2023-10-13T04:19:41;97045.00;;;15.20
8227;BMP180;4154;48.810;9.012;2023-10-13T04:22:26;97047.00;;;15.20
8227;BMP180;4154;48.810;9.012;2023-10-13T04:28:01;97048.00;;;15.20
8227;BMP180;4154;48.810;9.012;2023-10-13T04:30:50;97051.00;;;15.20
8227;BMP180;4154;48.810;9.012;2023-10-13T04:33:29;97044.00;;;15.20
8227;BMP180;4154;48.810;9.012;2023-10-13T04:35:55;97040.00;;;15.20
8227;BMP180;4154;48.810;9.012;2023-10-13T04:38:26;97036.00;;;15.20
8227;BMP180;4154;48.810;9.012;2023-10-13T04:40:59;97033.00;;;15.20
8227;BMP180;4154;48.810;9.012;2023-10-13T04:43:26;97034.00;;;15.20
8227;BMP180;4154;48.810;9.012;2023-10-13T04:45:59;97031.00;;;15.20
8227;BMP180;4154;48.810;9.012;2023-10-13T04:48:39;97028.00;;;15.20
8227;BMP180;4154;48.810;9.012;2023-10-13T04:51:06;97028.00;;;15.20
8227;BMP180;4154;48.810;9.012;2023-10-13T04:54:09;97017.00;;;15.10
8227;BMP180;4154;48.810;9.012;2023-10-13T04:56:51;97017.00;;;15.10
8227;BMP180;4154;48.810;9.012;2023-10-13T04:59:35;97017.00;;;15.10
8227;BMP180;4154;48.810;9.012;2023-10-13T05:02:03;97013.00;;;15.10
8227;BMP180;4154;48.810;9.012;2023-10-13T05:04:47;97014.00;;;15.10
8227;BMP180;4154;48.810;9.012;2023-10-13T05:07:47;97013.00;;;15.10
8227;BMP180;4154;48.810;9.012;2023-10-13T05:10:37;97008.00;;;15.10
8227;BMP180;4154;48.810;9.012;2023-10-13T05:13:21;97003.00;;;15.10
8227;BMP180;4154;48.810;9.012;2023-10-13T05:16:06;97001.00;;;15.10
8227;BMP180;4154;48.810;9.012;2023-10-13T05:18:50;97000.00;;;15.10
8227;BMP180;4154;48.810;9.012;2023-10-13T05:21:34;97002.00;;;15.10
8227;BMP180;4154;48.810;9.012;2023-10-13T05:24:19;96989.00;;;15.10
8227;BMP180;4154;48.810;9.012;2023-10-13T05:27:04;96996.00;;;15.10
8227;BMP180;4154;48.810;9.012;2023-10-13T05:29:48;96983.00;;;15.10
8227;BMP180;4154;48.810;9.012;2023-10-13T05:32:33;96986.00;;;15.10
8227;BMP180;4154;48.810;9.012;2023-10-13T05:35:20;96982.00;;;15.10
8227;BMP180;4154;48.810;9.012;2023-10-13T05:38:05;96986.00;;;15.10
8227;BMP180;4154;48.810;9.012;2023-10-13T05:41:02;96987.00;;;15.10
8227;BMP180;4154;48.810;9.012;2023-10-13T05:43:48;96980.00;;;15.10
8227;BMP180;4154;48.810;9.012;2023-10-13T05:46:33;96991.00;;;15.10
8227;BMP180;4154;48.810;9.012;2023-10-13T05:49:07;96983.00;;;15.10
8227;BMP180;4154;48.810;9.012;2023-10-13T05:51:43;96984.00;;;15.10
8227;BMP180;4154;48.810;9.012;2023-10-13T05:54:14;96984.00;;;15.10
8227;BMP180;4154;48.810;9.012;2023-10-13T05:56:50;96985.00;;;15.10
8227;BMP180;4154;48.810;9.012;2023-10-13T05:59:37;96991.00;;;15.10
8227;BMP180;4154;48.810;9.012;2023-10-13T06:02:23;96999.00;;;15.10
8227;BMP180;4154;48.810;9.012;2023-10-13T06:05:10;96999.00;;;15.20
8227;BMP180;4154;48.810;9.012;2023-10-13T06:08:09;97005.00;;;15.20
8227;BMP180;4154;48.810;9.012;2023-10-13T06:11:02;97005.00;;;15.30
8227;BMP180;4154;48.810;9.012;2023-10-13T06:13:47;97007.00;;;15.30
8227;BMP180;4154;48.810;9.012;2023-10-13T06:16:37;97006.00;;;15.40
8227;BMP180;4154;48.810;9.012;2023-10-13T06:19:40;97017.00;;;15.40
8227;BMP180;4154;48.810;9.012;2023-10-13T06:22:24;97005.00;;;15.40
8227;BMP180;4154;48.810;9.012;2023-10-13T06:25:08;97015.00;;;15.50
8227;BMP180;4154;48.810;9.012;2023-10-13T06:28:12;97015.00;;;15.60
8227;BMP180;4154;48.810;9.012;2023-10-13T06:30:59;97021.00;;;15.60
8227;BMP180;4154;48.810;9.012;2023-10-13T06:33:26;97019.00;;;15.60
8227;BMP180;4154;48.810;9.012;2023-10-13T06:35:56;97014.00;;;15.60
8227;BMP180;4154;48.810;9.012;2023-10-13T06:38:23;97005.00;;;15.70
8227;BMP180;4154;48.810;9.012;2023-10-13T06:40:49;97008.00;;;15.70
8227;BMP180;4154;48.810;9.012;2023-10-13T06:43:16;97006.00;;;15.70
8227;BMP180;4154;48.810;9.012;2023-10-13T06:45:47;97007.00;;;15.70
8227;BMP180;4154;48.810;9.012;2023-10-13T06:48:26;97009.00;;;15.70
8227;BMP180;4154;48.810;9.012;2023-10-13T06:50:52;97010.00;;;15.70
8227;BMP180;4154;48.810;9.012;2023-10-13T06:53:19;97011.00;;;15.70
8227;BMP180;4154;48.810;9.012;2023-10-13T06:55:45;97007.00;;;15.70
8227;BMP180;4154;48.810;9.012;2023-10-13T06:58:15;97006.00;;;15.70
8227;BMP180;4154;48.810;9.012;2023-10-13T07:00:43;97010.00;;;15.70
8227;BMP180;4154;48.810;9.012;2023-10-13T07:03:24;97012.00;;;15.70
8227;BMP180;4154;48.810;9.012;2023-10-13T07:05:51;97001.00;;;15.80
8227;BMP180;4154;48.810;9.012;2023-10-13T07:08:18;97009.00;;;15.80
8227;BMP180;4154;48.810;9.012;2023-10-13T07:10:54;97010.00;;;15.80
8227;BMP180;4154;48.810;9.012;2023-10-13T07:13:43;97014.00;;;15.80
8227;BMP180;4154;48.810;9.012;2023-10-13T07:16:15;97009.00;;;15.80
8227;BMP180;4154;48.810;9.012;2023-10-13T07:18:41;97017.00;;;15.80
8227;BMP180;4154;48.810;9.012;2023-10-13T07:21:16;97014.00;;;15.90
8227;BMP180;4154;48.810;9.012;2023-10-13T07:23:42;97012.00;;;15.90
8227;BMP180;4154;48.810;9.012;2023-10-13T07:26:32;97019.00;;;16.00
8227;BMP180;4154;48.810;9.012;2023-10-13T07:28:59;97012.00;;;16.00
8227;BMP180;4154;48.810;9.012;2023-10-13T07:31:25;97010.00;;;16.10
8227;BMP180;4154;48.810;9.012;2023-10-13T07:33:53;97005.00;;;16.10
8227;BMP180;4154;48.810;9.012;2023-10-13T07:36:28;97004.00;;;16.20
8227;BMP180;4154;48.810;9.012;2023-10-13T07:38:58;97000.00;;;16.30
8227;BMP180;4154;48.810;9.012;2023-10-13T07:41:42;97007.00;;;16.40
8227;BMP180;4154;48.810;9.012;2023-10-13T07:44:08;96987.00;;;16.40
8227;BMP180;4154;48.810;9.012;2023-10-13T07:46:34;96984.00;;;16.50
8227;BMP180;4154;48.810;9.012;2023-10-13T07:49:01;96987.00;;;16.60
8227;BMP180;4154;48.810;9.012;2023-10-13T07:51:40;97002.00;;;16.70
8227;BMP180;4154;48.810;9.012;2023-10-13T07:54:14;97001.00;;;16.70
8227;BMP180;4154;48.810;9.012;2023-10-13T07:56:48;96993.00;;;16.80
8227;BMP180;4154;48.810;9.012;2023-10-13T07:59:13;96986.00;;;16.90
8227;BMP180;4154;48.810;9.012;2023-10-13T08:01:48;96986.00;;;16.90
8227;BMP180;4154;48.810;9.012;2023-10-13T08:04:22;96983.00;;;17.00
8227;BMP180;4154;48.810;9.012;2023-10-13T08:06:54;96984.00;;;17.10
8227;BMP180;4154;48.810;9.012;2023-10-13T08:09:28;96981.00;;;17.20
8227;BMP180;4154;48.810;9.012;2023-10-13T08:11:56;96983.00;;;17.30
8227;BMP180;4154;48.810;9.012;2023-10-13T08:14:22;96986.00;;;17.40
8227;BMP180;4154;48.810;9.012;2023-10-13T08:16:49;96976.00;;;17.50
8227;BMP180;4154;48.810;9.012;2023-10-13T08:19:24;96976.00;;;17.50
8227;BMP180;4154;48.810;9.012;2023-10-13T08:21:59;96972.00;;;17.60
8227;BMP180;4154;48.810;9.012;2023-10-13T08:24:26;96975.00;;;17.60
8227;BMP180;4154;48.810;9.012;2023-10-13T08:27:19;96977.00;;;17.70
8227;BMP180;4154;48.810;9.012;2023-10-13T08:30:01;96958.00;;;17.80
8227;BMP180;4154;48.810;9.012;2023-10-13T08:32:29;96970.00;;;17.80
8227;BMP180;4154;48.810;9.012;2023-10-13T08:35:02;96963.00;;;17.90
8227;BMP180;4154;48.810;9.012;2023-10-13T08:37:32;96968.00;;;18.00
8227;BMP180;4154;48.810;9.012;2023-10-13T08:40:01;96969.00;;;18.00
8227;BMP180;4154;48.810;9.012;2023-10-13T08:42:31;96961.00;;;18.10
8227;BMP180;4154;48.810;9.012;2023-10-13T08:45:14;96953.00;;;18.20
8227;BMP180;4154;48.810;9.012;2023-10-13T08:48:11;96955.00;;;18.30
8227;BMP180;4154;48.810;9.012;2023-10-13T08:50:46;96954.00;;;18.40
8227;BMP180;4154;48.810;9.012;2023-10-13T08:53:24;96957.00;;;18.50
8227;BMP180;4154;48.810;9.012;2023-10-13T08:56:11;96954.00;;;18.60
8227;BMP180;4154;48.810;9.012;2023-10-13T08:58:50;96962.00;;;18.70
8227;BMP180;4154;48.810;9.012;2023-10-13T09:01:30;96956.00;;;18.80
8227;BMP180;4154;48.810;9.012;2023-10-13T09:04:18;96945.00;;;18.80
8227;BMP180;4154;48.810;9.012;2023-10-13T09:06:58;96946.00;;;18.90
8227;BMP180;4154;48.810;9.012;2023-10-13T09:09:34;96952.00;;;19.00
8227;BMP180;4154;48.810;9.012;2023-10-13T09:12:30;96954.00;;;19.10
8227;BMP180;4154;48.810;9.012;2023-10-13T09:15:01;96948.00;;;19.20
8227;BMP180;4154;48.810;9.012;2023-10-13T09:17:48;96951.00;;;19.30
8227;BMP180;4154;48.810;9.012;2023-10-13T09:20:29;96953.00;;;19.40
8227;BMP180;4154;48.810;9.012;2023-10-13T09:23:13;96952.00;;;19.50
8227;BMP180;4154;48.810;9.012;2023-10-13T09:25:49;96949.00;;;19.60
8227;BMP180;4154;48.810;9.012;2023-10-13T09:28:27;96945.00;;;19.70
8227;BMP180;4154;48.810;9.012;2023-10-13T09:30:55;96952.00;;;19.80
8227;BMP180;4154;48.810;9.012;2023-10-13T09:33:25;96945.00;;;19.90
8227;BMP180;4154;48.810;9.012;2023-10-13T09:36:12;96948.00;;;19.90
8227;BMP180;4154;48.810;9.012;2023-10-13T09:38:39;96946.00;;;20.00
8227;BMP180;4154;48.810;9.012;2023-10-13T09:41:06;96942.00;;;20.10
8227;BMP180;4154;48.810;9.012;2023-10-13T09:43:47;96937.00;;;20.20
8227;BMP180;4154;48.810;9.012;2023-10-13T09:46:20;96918.00;;;20.30
8227;BMP180;4154;48.810;9.012;2023-10-13T09:48:49;96929.00;;;20.30
8227;BMP180;4154;48.810;9.012;2023-10-13T09:51:30;96925.00;;;20.50
8227;BMP180;4154;48.810;9.012;2023-10-13T09:54:10;96921.00;;;20.60
8227;BMP180;4154;48.810;9.012;2023-10-13T09:56:57;96926.00;;;20.60
8227;BMP180;4154;48.810;9.012;2023-10-13T09:59:45;96919.00;;;20.70
8227;BMP180;4154;48.810;9.012;2023-10-13T10:02:18;96926.00;;;20.80
8227;BMP180;4154;48.810;9.012;2023-10-13T10:04:55;96922.00;;;20.90
8227;BMP180;4154;48.810;9.012;2023-10-13T10:07:59;96928.00;;;20.90
8227;BMP180;4154;48.810;9.012;2023-10-13T10:10:49;96926.00;;;21.00
8227;BMP180;4154;48.810;9.012;2023-10-13T10:17:06;96927.00;;;21.10
8227;BMP180;4154;48.810;9.012;2023-10-13T10:22:13;96923.00;;;21.00
8227;BMP180;4154;48.810;9.012;2023-10-13T10:24:59;96912.00;;;21.00
8227;BMP180;4154;48.810;9.012;2023-10-13T10:27:32;96924.00;;;21.00
8227;BMP180;4154;48.810;9.012;2023-10-13T10:29:58;96920.00;;;21.00
8227;BMP180;4154;48.810;9.012;2023-10-13T10:32:37;96928.00;;;21.00
8227;BMP180;4154;48.810;9.012;2023-10-13T10:35:08;96921.00;;;21.10
8227;BMP180;4154;48.810;9.012;2023-10-13T10:37:35;96913.00;;;21.10
8227;BMP180;4154;48.810;9.012;2023-10-13T10:40:08;96918.00;;;21.10
8227;BMP180;4154;48.810;9.012;2023-10-13T10:42:34;96903.00;;;21.10
8227;BMP180;4154;48.810;9.012;2023-10-13T10:45:00;96905.00;;;21.20
8227;BMP180;4154;48.810;9.012;2023-10-13T10:47:31;96891.00;;;21.20
8227;BMP180;4154;48.810;9.012;2023-10-13T10:49:59;96895.00;;;21.30
8227;BMP180;4154;48.810;9.012;2023-10-13T10:52:45;96887.00;;;21.30
8227;BMP180;4154;48.810;9.012;2023-10-13T10:55:12;96894.00;;;21.40
8227;BMP180;4154;48.810;9.012;2023-10-13T10:57:45;96881.00;;;21.40
8227;BMP180;4154;48.810;9.012;2023-10-13T11:00:21;96880.00;;;21.50
8227;BMP180;4154;48.810;9.012;2023-10-13T11:02:55;96886.00;;;21.60
8227;BMP180;4154;48.810;9.012;2023-10-13T11:05:21;96884.00;;;21.70
8227;BMP180;4154;48.810;9.012;2023-10-13T11:07:50;96870.00;;;21.90
8227;BMP180;4154;48.810;9.012;2023-10-13T11:10:18;96864.00;;;22.00
8227;BMP180;4154;48.810;9.012;2023-10-13T11:12:55;96863.00;;;22.20
8227;BMP180;4154;48.810;9.012;2023-10-13T11:15:21;96855.00;;;22.30
8227;BMP180;4154;48.810;9.012;2023-10-13T11:17:59;96858.00;;;22.50
8227;BMP180;4154;48.810;9.012;2023-10-13T11:20:26;96845.00;;;22.70
8227;BMP180;4154;48.810;9.012;2023-10-13T11:22:52;96838.00;;;22.80
8227;BMP180;4154;48.810;9.012;2023-10-13T11:25:32;96852.00;;;23.00
8227;BMP180;4154;48.810;9.012;2023-10-13T11:28:15;96850.00;;;23.10
8227;BMP180;4154;48.810;9.012;2023-10-13T11:30:55;96843.00;;;23.20
8227;BMP180;4154;48.810;9.012;2023-10-13T11:33:25;96840.00;;;23.20
8227;BMP180;4154;48.810;9.012;2023-10-13T11:35:55;96832.00;;;23.30
8227;BMP180;4154;48.810;9.012;2023-10-13T11:38:28;96839.00;;;23.40
8227;BMP180;4154;48.810;9.012;2023-10-13T11:41:03;96822.00;;;23.50
8227;BMP180;4154;48.810;9.012;2023-10-13T11:43:32;96826.00;;;23.60
8227;BMP180;4154;48.810;9.012;2023-10-13T11:46:25;96826.00;;;23.70
8227;BMP180;4154;48.810;9.012;2023-10-13T11:49:08;96822.00;;;23.80
8227;BMP180;4154;48.810;9.012;2023-10-13T11:51:57;96803.00;;;24.00
8227;BMP180;4154;48.810;9.012;2023-10-13T11:54:34;96815.00;;;24.00
8227;BMP180;4154;48.810;9.012;2023-10-13T11:57:04;96817.00;;;24.00
8227;BMP180;4154;48.810;9.012;2023-10-13T11:59:33;96816.00;;;24.10
8227;BMP180;4154;48.810;9.012;2023-10-13T12:02:01;96813.00;;;24.20
8227;BMP180;4154;48.810;9.012;2023-10-13T12:04:37;96810.00;;;24.20
8227;BMP180;4154;48.810;9.012;2023-10-13T12:07:15;96808.00;;;24.30
8227;BMP180;4154;48.810;9.012;2023-10-13T12:09:47;96809.00;;;24.40
8227;BMP180;4154;48.810;9.012;2023-10-13T12:12:25;96797.00;;;24.40
8227;BMP180;4154;48.810;9.012;2023-10-13T12:14:52;96806.00;;;24.50
8227;BMP180;4154;48.810;9.012;2023-10-13T12:17:19;96797.00;;;24.60
8227;BMP180;4154;48.810;9.012;2023-10-13T12:19:52;96791.00;;;24.60
8227;BMP180;4154;48.810;9.012;2023-10-13T12:22:17;96794.00;;;24.70
8227;BMP180;4154;48.810;9.012;2023-10-13T12:24:51;96790.00;;;24.70
8227;BMP180;4154;48.810;9.012;2023-10-13T12:27:19;96790.00;;;24.70
8227;BMP180;4154;48.810;9.012;2023-10-13T12:29:49;96782.00;;;24.80
8227;BMP180;4154;48.810;9.012;2023-10-13T12:32:17;96785.00;;;24.90
8227;BMP180;4154;48.810;9.012;2023-10-13T12:34:48;96772.00;;;24.90
8227;BMP180;4154;48.810;9.012;2023-10-13T12:37:42;96775.00;;;25.00
8227;BMP180;4154;48.810;9.012;2023-10-13T12:40:11;96766.00;;;25.10
8227;BMP180;4154;48.810;9.012;2023-10-13T12:42:56;96774.00;;;25.10
8227;BMP180;4154;48.810;9.012;2023-10-13T12:45:44;96760.00;;;25.20
8227;BMP180;4154;48.810;9.012;2023-10-13T12:48:29;96759.00;;;25.30
8227;BMP180;4154;48.810;9.012;2023-10-13T12:51:14;96756.00;;;25.40
8227;BMP180;4154;48.810;9.012;2023-10-13T12:53:51;96744.00;;;25.40
8227;BMP180;4154;48.810;9.012;2023-10-13T12:56:18;96753.00;;;25.40
8227;BMP180;4154;48.810;9.012;2023-10-13T12:58:52;96750.00;;;25.40
8227;BMP180;4154;48.810;9.012;2023-10-13T13:01:27;96750.00;;;25.40
8227;BMP180;4154;48.810;9.012;2023-10-13T13:03:58;96736.00;;;25.30
8227;BMP180;4154;48.810;9.012;2023-10-13T13:06:26;96740.00;;;25.30
8227;BMP180;4154;48.810;9.012;2023-10-13T13:08:57;96742.00;;;25.30
8227;BMP180;4154;48.810;9.012;2023-10-13T13:11:25;96741.00;;;25.30
8227;BMP180;4154;48.810;9.012;2023-10-13T13:13:51;96725.00;;;25.30
8227;BMP180;4154;48.810;9.012;2023-10-13T13:16:18;96731.00;;;25.30
8227;BMP180;4154;48.810;9.012;2023-10-13T13:18:45;96728.00;;;25.30
8227;BMP180;4154;48.810;9.012;2023-10-13T13:21:11;96720.00;;;25.30
8227;BMP180;4154;48.810;9.012;2023-10-13T13:23:52;96725.00;;;25.40
8227;BMP180;4154;48.810;9.012;2023-10-13T13:26:24;96716.00;;;25.40
8227;BMP180;4154;48.810;9.012;2023-10-13T13:28:50;96721.00;;;25.40
8227;BMP180;4154;48.810;9.012;2023-10-13T13:31:20;96725.00;;;25.40
8227;BMP180;4154;48.810;9.012;2023-10-13T13:33:52;96706.00;;;25.40
8227;BMP180;4154;48.810;9.012;2023-10-13T13:36:18;96710.00;;;25.40
8227;BMP180;4154;48.810;9.012;2023-10-13T13:38:45;96704.00;;;25.40
8227;BMP180;4154;48.810;9.012;2023-10-13T13:41:17;96698.00;;;25.40
8227;BMP180;4154;48.810;9.012;2023-10-13T13:43:49;96691.00;;;25.40
8227;BMP180;4154;48.810;9.012;2023-10-13T13:46:21;96688.00;;;25.40
8227;BMP180;4154;48.810;9.012;2023-10-13T13:48:51;96679.00;;;25.40
8227;BMP180;4154;48.810;9.012;2023-10-13T13:51:23;96683.00;;;25.50
8227;BMP180;4154;48.810;9.012;2023-10-13T13:53:54;96681.00;;;25.50
8227;BMP180;4154;48.810;9.012;2023-10-13T13:56:20;96682.00;;;25.50
8227;BMP180;4154;48.810;9.012;2023-10-13T13:58:48;96669.00;;;25.50
8227;BMP180;4154;48.810;9.012;2023-10-13T14:01:15;96664.00;;;25.60
8227;BMP180;4154;48.810;9.012;2023-10-13T14:03:44;96664.00;;;25.60
8227;BMP180;4154;48.810;9.012;2023-10-13T14:06:15;96663.00;;;25.70
8227;BMP180;4154;48.810;9.012;2023-10-13T14:08:47;96655.00;;;25.70
8227;BMP180;4154;48.810;9.012;2023-10-13T14:11:20;96657.00;;;25.80
8227;BMP180;4154;48.810;9.012;2023-10-13T14:13:49;96656.00;;;25.80
8227;BMP180;4154;48.810;9.012;2023-10-13T14:16:19;96653.00;;;25.80
8227;BMP180;4154;48.810;9.012;2023-10-13T14:18:50;96646.00;;;25.80
8227;BMP180;4154;48.810;9.012;2023-10-13T14:21:17;96647.00;;;25.80
8227;BMP180;4154;48.810;9.012;2023-10-13T14:23:48;96650.00;;;25.80
8227;BMP180;4154;48.810;9.012;2023-10-13T14:26:15;96647.00;;;25.80
8227;BMP180;4154;48.810;9.012;2023-10-13T14:29:01;96641.00;;;25.80
8227;BMP180;4154;48.810;9.012;2023-10-13T14:31:29;96643.00;;;25.80
8227;BMP180;4154;48.810;9.012;2023-10-13T14:33:56;96644.00;;;25.80
8227;BMP180;4154;48.810;9.012;2023-10-13T14:36:23;96640.00;;;25.80
8227;BMP180;4154;48.810;9.012;2023-10-13T14:38:49;96646.00;;;25.80
8227;BMP180;4154;48.810;9.012;2023-10-13T14:41:17;96643.00;;;25.70
8227;BMP180;4154;48.810;9.012;2023-10-13T14:43:44;96636.00;;;25.70
8227;BMP180;4154;48.810;9.012;2023-10-13T14:46:20;96642.00;;;25.70
8227;BMP180;4154;48.810;9.012;2023-10-13T14:48:52;96644.00;;;25.60
8227;BMP180;4154;48.810;9.012;2023-10-13T14:51:18;96634.00;;;25.60
8227;BMP180;4154;48.810;9.012;2023-10-13T14:53:45;96639.00;;;25.60
8227;BMP180;4154;48.810;9.012;2023-10-13T14:56:16;96632.00;;;25.60
8227;BMP180;4154;48.810;9.012;2023-10-13T14:58:44;96632.00;;;25.50
8227;BMP180;4154;48.810;9.012;2023-10-13T15:01:16;96626.00;;;25.50
8227;BMP180;4154;48.810;9.012;2023-10-13T15:03:50;96631.00;;;25.50
8227;BMP180;4154;48.810;9.012;2023-10-13T15:08:47;96630.00;;;25.40
8227;BMP180;4154;48.810;9.012;2023-10-13T15:11:14;96624.00;;;25.30
8227;BMP180;4154;48.810;9.012;2023-10-13T15:13:44;96618.00;;;25.20
8227;BMP180;4154;48.810;9.012;2023-10-13T15:16:18;96624.00;;;25.10
8227;BMP180;4154;48.810;9.012;2023-10-13T15:18:49;96623.00;;;25.10
8227;BMP180;4154;48.810;9.012;2023-10-13T15:21:27;96622.00;;;25.00
8227;BMP180;4154;48.810;9.012;2023-10-13T15:24:16;96618.00;;;25.00
8227;BMP180;4154;48.810;9.012;2023-10-13T15:26:46;96615.00;;;24.90